Bradenton, FL (34202)

7:42 AM EST on February 09, 2016 (GMT -0500)
APRSWXNET | | Change Station
CLOSE
Current Station
Personal Weather Station
Location: Bradenton, FL
Elevation: 38 ft
Nearby Weather Stations
Active Advisory: Lake Wind Advisory Active Notice: Public Information Statement

Elev 38 ft 27.50 °N, 82.40 °W | Updated 31 minutes ago

Overcast
Overcast
55 °F
Feels Like 55 °F
N
7
Wind Variable Wind from North
Gusts 9.0 mph

Today
High -- | Low -- °F
--% Chance of Precip.
Yesterday
High -- | Low -- °F
Precip. -- in
Pressure 30.04 in
Visibility 10.0 miles
Clouds Mostly Cloudy 6000 ft
Overcast 7000 ft
Dew Point 43 °F
Humidity 63%
Rainfall in
Snow Depth Not available.
7:11 AM 6:16 PM
New Moon, 1% visible
METAR KSRQ 091153Z 32015G22KT 10SM BKN060 OVC070 13/03 A3004 RMK AO2 PK WND 33027/1117 SLP172 T01280033 10167 20128 52025
Pressure 30.04 in
Visibility 10.0 miles
Clouds Mostly Cloudy 6000 ft
Overcast 7000 ft
Dew Point 43 °F
Humidity 63%
Rainfall in
Snow Depth Not available.
7:11 AM 6:16 PM
New Moon, 1% visible
METAR KSRQ 091153Z 32015G22KT 10SM BKN060 OVC070 13/03 A3004 RMK AO2 PK WND 33027/1117 SLP172 T01280033 10167 20128 52025

10-Day Weather Forecast

Almanac

Astronomy

Feb. 09, 2016 Rise Set
Actual Time
Civil Twilight
Nautical Twilight
Astronomical Twilight
Moon
Length of Visible Light
Length of Day
Tomorrow will be .
, % of the Moon is Illuminated

Today's Extremes

State Highs State Lows

Community

WunderPhotos

Upload Photos

1,891,589 photos uploaded!

WunderBlog® & News

Nearby

Air Quality

  Air Quality AQ Index Pollutant
Not available.

Snow Depth

Station Depth Elevation

Earthquake Activity

City Distance Mag. Time & Date
Minimum magnitude displayed is 2.5.

Coastal Water Temperatures

Place Temperature

Stations

Nearby Weather Stations

Station Location Temp. Windchill Dew Point Humidity Wind Precip. Elev Updated Type
                   

Watches & Warnings

Lake Wind Advisory
Issued: 4:12 AM EST Feb. 9, 2016 – National Weather Service

... Lake Wind Advisory in effect from 11 am this morning to 6 PM
EST this evening...

The National Weather Service in Tampa Bay area - Ruskin FL has
issued a lake Wind Advisory... which is in effect from 11 am this
morning to 6 PM EST this evening.

* Timing... 11 am to 6 PM EST

* winds... sustained winds of 20 to 25 mph with some higher gusts
over area lakes.

* Impacts... hazardous boating conditions on area lakes.

Precautionary/preparedness actions...

A lake Wind Advisory is issued when sustained winds are forecast
to be 20 to 29 mph with frequent gusts to near or above gale
force for at least 3 hours. Winds of these magnitudes will
create rough conditions on larger area lakes which could produce
damage to... or flip... small pleasure craft.

Outdoor enthusiasts may wish to postpone lake related activities
until conditions improve.